createdAt,value
2022-12-23T00:01:19.146Z,1.40
2022-12-23T00:03:45.550Z,0.70
2022-12-23T00:06:16.305Z,1.17
2022-12-23T00:08:43.041Z,1.08
2022-12-23T00:11:16.164Z,0.82
2022-12-23T00:13:42.846Z,1.17
2022-12-23T00:16:12.496Z,1.10
2022-12-23T00:18:39.950Z,0.75
2022-12-23T00:21:12.949Z,1.25
2022-12-23T00:23:42.380Z,0.73
2022-12-23T00:26:18.493Z,0.77
2022-12-23T00:28:45.082Z,1.10
2022-12-23T00:31:12.269Z,0.82
2022-12-23T00:33:41.448Z,0.68
2022-12-23T00:36:24.851Z,0.93
2022-12-23T00:38:51.641Z,0.52
2022-12-23T00:41:18.906Z,0.60
2022-12-23T00:43:45.221Z,0.85
2022-12-23T00:46:11.702Z,1.17
2022-12-23T00:48:38.085Z,0.50
2022-12-23T00:51:04.597Z,0.80
2022-12-23T00:53:30.967Z,0.43
2022-12-23T00:55:57.285Z,0.43
2022-12-23T00:58:23.881Z,0.73
2022-12-23T01:00:50.236Z,0.77
2022-12-23T01:03:16.876Z,0.40
2022-12-23T01:05:43.369Z,0.65
2022-12-23T01:08:12.155Z,0.70
2022-12-23T01:10:40.530Z,0.88
2022-12-23T01:13:07.151Z,0.40
2022-12-23T01:15:33.787Z,0.22
2022-12-23T01:18:00.475Z,1.05
2022-12-23T01:20:26.857Z,0.52
2022-12-23T01:22:53.247Z,1.00
2022-12-23T01:25:19.547Z,1.02
2022-12-23T01:27:45.953Z,1.02
2022-12-23T01:30:12.414Z,0.82
2022-12-23T01:32:38.845Z,0.98
2022-12-23T01:35:05.584Z,1.00
2022-12-23T01:37:32.078Z,1.98
2022-12-23T01:39:58.626Z,1.55
2022-12-23T01:42:24.998Z,2.40
2022-12-23T01:44:59.105Z,2.60
2022-12-23T01:47:45.705Z,3.08
2022-12-23T01:50:37.879Z,1.98
2022-12-23T01:53:30.880Z,2.70
2022-12-23T01:55:59.477Z,1.92
2022-12-23T01:58:36.647Z,2.53
2022-12-23T02:01:03.207Z,1.77
2022-12-23T02:03:31.479Z,1.23
2022-12-23T02:05:58.815Z,1.23
2022-12-23T02:08:25.282Z,0.70
2022-12-23T02:11:19.135Z,0.82
2022-12-23T02:14:36.726Z,0.50
2022-12-23T02:17:25.485Z,0.45
2022-12-23T02:20:16.350Z,0.43
2022-12-23T02:23:31.930Z,0.52
2022-12-23T02:26:29.269Z,0.50
2022-12-23T02:29:11.602Z,0.32
2022-12-23T02:32:03.420Z,0.50
2022-12-23T02:34:49.897Z,0.60
2022-12-23T02:37:24.211Z,0.40
2022-12-23T02:39:56.072Z,0.30
2022-12-23T02:42:27.741Z,0.47
2022-12-23T02:45:08.167Z,0.47
2022-12-23T02:47:39.573Z,0.70
2022-12-23T02:50:14.292Z,0.40
2022-12-23T02:52:44.643Z,0.50
2022-12-23T02:55:19.693Z,0.38
2022-12-23T02:57:49.742Z,0.50
2022-12-23T03:00:16.981Z,0.88
2022-12-23T03:02:44.187Z,0.82
2022-12-23T03:05:32.644Z,0.40
2022-12-23T03:08:02.998Z,0.57
2022-12-23T03:10:45.667Z,0.47
2022-12-23T03:13:26.630Z,0.50
2022-12-23T03:16:22.964Z,0.57
2022-12-23T03:19:15.995Z,0.50
2022-12-23T03:22:00.086Z,0.60
2022-12-23T03:24:40.307Z,0.63
2022-12-23T03:27:16.022Z,0.93
2022-12-23T03:29:53.883Z,0.43
2022-12-23T03:32:23.242Z,0.50
2022-12-23T03:34:54.067Z,0.60
2022-12-23T03:37:23.681Z,0.68
2022-12-23T03:39:56.365Z,0.50
2022-12-23T03:42:26.902Z,0.77
2022-12-23T03:45:28.002Z,0.50
2022-12-23T03:47:49.134Z,0.28
2022-12-23T03:50:19.384Z,0.30
2022-12-23T03:52:56.106Z,0.47
2022-12-23T03:55:35.103Z,0.40
2022-12-23T03:58:24.066Z,0.60
2022-12-23T04:01:04.250Z,0.65
2022-12-23T04:03:42.921Z,0.55
2022-12-23T04:06:14.368Z,0.25
2022-12-23T04:08:42.036Z,0.45
2022-12-23T04:11:08.754Z,0.50
2022-12-23T04:13:35.306Z,0.43
2022-12-23T04:16:02.359Z,0.25
2022-12-23T04:18:29.303Z,0.40
2022-12-23T04:20:55.647Z,0.30
2022-12-23T04:23:22.171Z,0.73
2022-12-23T04:25:48.578Z,0.55
2022-12-23T04:28:15.065Z,0.50
2022-12-23T04:30:41.490Z,0.55
2022-12-23T04:33:10.892Z,0.50
2022-12-23T04:35:37.299Z,0.35
2022-12-23T04:38:04.089Z,0.40
2022-12-23T04:40:30.475Z,0.40
2022-12-23T04:42:57.160Z,0.68
2022-12-23T04:45:23.559Z,0.52
2022-12-23T04:47:49.889Z,0.40
2022-12-23T04:50:17.473Z,0.20
2022-12-23T04:52:44.139Z,0.50
2022-12-23T04:55:10.932Z,0.55
2022-12-23T04:57:37.387Z,0.47
2022-12-23T05:00:05.207Z,0.40
2022-12-23T05:02:31.760Z,0.45
2022-12-23T05:04:58.362Z,0.40
2022-12-23T05:07:25.337Z,0.38
2022-12-23T05:09:51.721Z,0.50
2022-12-23T05:12:18.271Z,0.28
2022-12-23T05:14:44.578Z,0.50
2022-12-23T05:17:10.883Z,0.40
2022-12-23T05:19:37.306Z,0.47
2022-12-23T05:22:03.692Z,0.63
2022-12-23T05:24:30.255Z,0.65
2022-12-23T05:27:00.199Z,0.40
2022-12-23T05:29:27.340Z,0.57
2022-12-23T05:31:53.854Z,0.55
2022-12-23T05:34:20.701Z,0.60
2022-12-23T05:36:47.070Z,0.25
2022-12-23T05:39:13.595Z,0.80
2022-12-23T05:41:39.914Z,0.45
2022-12-23T05:44:06.377Z,0.40
2022-12-23T05:46:32.785Z,0.45
2022-12-23T05:48:59.377Z,0.32
2022-12-23T05:51:26.185Z,0.70
2022-12-23T05:53:52.623Z,0.75
2022-12-23T05:56:18.967Z,0.40
2022-12-23T05:58:45.308Z,0.38
2022-12-23T06:01:11.811Z,0.20
2022-12-23T06:03:38.391Z,0.40
2022-12-23T06:06:05.292Z,0.63
2022-12-23T06:08:32.222Z,0.47
2022-12-23T06:10:58.764Z,0.30
2022-12-23T06:13:25.544Z,0.20
2022-12-23T06:15:51.852Z,0.28
2022-12-23T06:18:18.268Z,0.20
2022-12-23T06:20:48.017Z,0.20
2022-12-23T06:23:14.618Z,0.22
2022-12-23T06:25:40.985Z,0.28
2022-12-23T06:28:07.416Z,0.25
2022-12-23T06:30:34.322Z,0.30
2022-12-23T06:33:00.815Z,0.25
2022-12-23T06:35:27.163Z,0.52
2022-12-23T06:37:53.595Z,0.32
2022-12-23T06:40:19.916Z,0.45
2022-12-23T06:42:46.677Z,0.35
2022-12-23T06:45:13.031Z,0.50
2022-12-23T06:47:39.413Z,0.30
2022-12-23T06:50:06.301Z,0.40
2022-12-23T06:52:32.729Z,0.43
2022-12-23T06:54:59.027Z,0.25
2022-12-23T06:57:25.456Z,0.75
2022-12-23T06:59:51.774Z,0.52
2022-12-23T07:02:18.303Z,0.50
2022-12-23T07:04:44.912Z,0.30
2022-12-23T07:07:11.245Z,0.35
2022-12-23T07:09:37.591Z,0.40
2022-12-23T07:12:04.108Z,0.30
2022-12-23T07:14:30.850Z,0.38
2022-12-23T07:16:57.497Z,0.73
2022-12-23T07:19:23.901Z,0.43
2022-12-23T07:21:50.259Z,0.60
2022-12-23T07:24:16.650Z,0.35
2022-12-23T07:26:43.323Z,0.35
2022-12-23T07:29:09.725Z,0.38
2022-12-23T07:31:40.604Z,0.30
2022-12-23T07:34:07.476Z,0.40
2022-12-23T07:36:34.280Z,0.40
2022-12-23T07:39:00.714Z,0.30
2022-12-23T07:41:27.035Z,0.20
2022-12-23T07:43:53.487Z,0.20
2022-12-23T07:46:19.930Z,0.35
2022-12-23T07:48:46.532Z,0.20
2022-12-23T07:51:12.935Z,0.40
2022-12-23T07:53:39.408Z,0.20
2022-12-23T07:56:06.122Z,0.28
2022-12-23T07:58:32.575Z,0.20
2022-12-23T08:01:06.104Z,0.20
2022-12-23T08:03:32.916Z,0.10
2022-12-23T08:06:04.870Z,0.43
2022-12-23T08:08:32.226Z,0.25
2022-12-23T08:11:01.134Z,0.32
2022-12-23T08:13:28.118Z,0.60
2022-12-23T08:15:59.277Z,0.30
2022-12-23T08:18:27.074Z,0.32
2022-12-23T08:21:06.179Z,0.30
2022-12-23T08:23:33.252Z,0.30
2022-12-23T08:26:11.753Z,0.38
2022-12-23T08:28:39.835Z,0.28
2022-12-23T08:31:07.070Z,0.22
2022-12-23T08:33:34.705Z,0.57
2022-12-23T08:36:01.095Z,0.50
2022-12-23T08:38:27.905Z,0.38
2022-12-23T08:40:54.484Z,0.60
2022-12-23T08:43:20.851Z,0.45
2022-12-23T08:45:47.587Z,0.57
2022-12-23T08:48:14.480Z,0.47
2022-12-23T08:50:42.280Z,0.73
2022-12-23T08:53:09.251Z,0.32
2022-12-23T08:55:43.955Z,0.73
2022-12-23T08:58:12.125Z,0.65
2022-12-23T09:00:38.796Z,0.30
2022-12-23T09:03:05.826Z,0.20
2022-12-23T09:05:33.315Z,0.40
2022-12-23T09:08:00.298Z,0.73
2022-12-23T09:10:26.624Z,0.50
2022-12-23T09:12:53.174Z,0.65
2022-12-23T09:15:19.492Z,0.55
2022-12-23T09:17:46.040Z,0.20
2022-12-23T09:20:12.544Z,0.30
2022-12-23T09:22:38.919Z,0.80
2022-12-23T09:25:05.676Z,0.35
2022-12-23T09:27:32.242Z,0.30
2022-12-23T09:29:58.704Z,0.65
2022-12-23T09:32:25.018Z,0.63
2022-12-23T09:34:51.360Z,0.68
2022-12-23T09:37:17.776Z,0.57
2022-12-23T09:39:44.476Z,0.55
2022-12-23T09:42:55.295Z,0.20
2022-12-23T09:45:40.965Z,0.40
2022-12-23T09:48:13.771Z,0.25
2022-12-23T09:50:42.402Z,0.30
2022-12-23T09:53:15.359Z,0.32
2022-12-23T09:56:06.252Z,0.28
2022-12-23T09:58:48.774Z,0.43
2022-12-23T10:01:44.763Z,0.50
2022-12-23T10:06:47.362Z,0.20
2022-12-23T10:09:17.390Z,0.73
2022-12-23T10:11:47.514Z,0.40
2022-12-23T10:14:24.010Z,0.65
2022-12-23T10:16:55.304Z,0.70
2022-12-23T10:19:43.551Z,0.47
2022-12-23T10:22:26.660Z,0.20
2022-12-23T10:24:55.661Z,0.52
2022-12-23T10:27:41.088Z,0.10
2022-12-23T10:30:49.507Z,0.30
2022-12-23T10:33:20.061Z,0.30
2022-12-23T10:36:09.355Z,0.68
2022-12-23T10:38:46.994Z,0.55
2022-12-23T10:41:28.771Z,0.47
2022-12-23T10:44:14.829Z,0.47
2022-12-23T10:47:04.557Z,0.47
2022-12-23T10:50:09.276Z,0.38
2022-12-23T10:52:39.780Z,0.50
2022-12-23T10:55:06.973Z,0.50
2022-12-23T10:57:33.496Z,0.32
2022-12-23T10:59:59.946Z,0.65
2022-12-23T11:02:47.457Z,0.73
2022-12-23T11:05:21.443Z,0.47
2022-12-23T11:07:47.956Z,0.52
2022-12-23T11:10:22.003Z,0.35
2022-12-23T11:12:51.546Z,0.90
2022-12-23T11:15:31.798Z,0.75
2022-12-23T11:18:00.795Z,0.65
2022-12-23T11:20:28.453Z,0.22
2022-12-23T11:23:00.283Z,1.05
2022-12-23T11:25:33.144Z,0.70
2022-12-23T11:28:08.132Z,0.60
2022-12-23T11:30:57.005Z,0.50
2022-12-23T11:33:30.035Z,0.57
2022-12-23T11:36:22.626Z,0.45
2022-12-23T11:38:58.365Z,0.60
2022-12-23T11:41:55.743Z,0.55
2022-12-23T11:44:43.265Z,0.60
2022-12-23T11:47:25.561Z,0.68
2022-12-23T11:49:55.102Z,0.60
2022-12-23T11:52:24.330Z,0.73
2022-12-23T11:54:56.346Z,0.50
2022-12-23T11:57:41.417Z,1.17
2022-12-23T12:00:18.692Z,0.60
2022-12-23T12:02:47.491Z,0.70
2022-12-23T12:05:25.258Z,0.57
2022-12-23T12:07:52.215Z,0.90
2022-12-23T12:10:24.913Z,0.70
2022-12-23T12:12:56.038Z,0.70
2022-12-23T12:15:50.926Z,0.50
2022-12-23T12:18:19.798Z,0.50
2022-12-23T12:20:51.013Z,0.22
2022-12-23T12:23:34.232Z,0.50
2022-12-23T12:26:07.871Z,0.65
2022-12-23T12:28:40.319Z,0.50
2022-12-23T12:31:35.520Z,0.80
2022-12-23T12:34:05.023Z,0.50
2022-12-23T12:36:56.437Z,0.57
2022-12-23T12:39:30.838Z,0.55
2022-12-23T12:42:05.874Z,0.47
2022-12-23T12:44:43.464Z,0.47
2022-12-23T12:47:44.624Z,1.20
2022-12-23T12:50:18.224Z,0.75
2022-12-23T12:52:44.705Z,0.85
2022-12-23T12:55:14.686Z,0.50
2022-12-23T12:57:41.316Z,0.32
2022-12-23T13:00:15.521Z,0.30
2022-12-23T13:03:03.487Z,0.45
2022-12-23T13:05:32.593Z,0.45
2022-12-23T13:08:01.968Z,0.30
2022-12-23T13:10:44.712Z,0.25
2022-12-23T13:13:40.995Z,0.40
2022-12-23T13:16:16.930Z,0.40
2022-12-23T13:18:55.605Z,0.43
2022-12-23T13:21:41.095Z,0.30
2022-12-23T13:24:35.483Z,0.30
2022-12-23T13:27:14.135Z,0.20
2022-12-23T13:30:19.927Z,1.02
2022-12-23T13:33:07.626Z,0.37
2022-12-23T13:35:48.637Z,0.50
2022-12-23T13:38:48.045Z,0.13
2022-12-23T13:41:27.411Z,0.43
2022-12-23T13:43:57.802Z,0.35
2022-12-23T13:46:30.062Z,0.60
2022-12-23T13:49:07.009Z,0.50
2022-12-23T13:51:43.399Z,0.40
2022-12-23T13:54:21.894Z,0.47
2022-12-23T13:57:19.823Z,0.60
2022-12-23T14:00:04.662Z,0.43
2022-12-23T14:02:37.479Z,0.75
2022-12-23T14:05:26.581Z,0.52
2022-12-23T14:07:53.036Z,0.30
2022-12-23T14:10:23.343Z,0.63
2022-12-23T14:12:51.807Z,0.70
2022-12-23T14:15:42.635Z,0.80
2022-12-23T14:18:31.730Z,0.55
2022-12-23T14:21:41.886Z,0.70
2022-12-23T14:24:23.267Z,0.90
2022-12-23T14:27:01.952Z,0.63
2022-12-23T14:29:43.261Z,0.47
2022-12-23T14:32:28.393Z,0.60
2022-12-23T14:35:17.791Z,0.63
2022-12-23T14:38:04.904Z,0.70
2022-12-23T14:40:37.347Z,0.90
2022-12-23T14:43:22.107Z,2.88
2022-12-23T14:45:51.457Z,1.35
2022-12-23T14:48:36.911Z,1.15
2022-12-23T14:51:22.680Z,0.82
2022-12-23T14:53:51.737Z,0.47
2022-12-23T14:56:18.062Z,0.57
2022-12-23T14:59:35.952Z,0.40
2022-12-23T15:02:40.047Z,0.50
2022-12-23T15:05:07.798Z,0.38
2022-12-23T15:07:37.582Z,0.47
2022-12-23T15:10:15.679Z,0.43
2022-12-23T15:12:52.465Z,0.95
2022-12-23T15:15:23.156Z,0.20
2022-12-23T15:18:00.716Z,0.28
2022-12-23T15:20:27.054Z,0.55
2022-12-23T15:23:00.481Z,0.30
2022-12-23T15:25:33.005Z,0.30
2022-12-23T15:28:02.733Z,0.52
2022-12-23T15:30:34.818Z,0.30
2022-12-23T15:33:27.982Z,0.30
2022-12-23T15:35:54.039Z,0.22
2022-12-23T15:38:22.298Z,0.40
2022-12-23T15:41:03.271Z,0.35
2022-12-23T15:43:30.217Z,0.98
2022-12-23T15:46:08.139Z,0.82
2022-12-23T15:48:34.632Z,0.60
2022-12-23T15:51:11.481Z,1.13
2022-12-23T15:53:40.364Z,1.10
2022-12-23T15:56:10.490Z,1.50
2022-12-23T15:58:40.042Z,1.33
2022-12-23T16:01:08.236Z,1.42
2022-12-23T16:03:39.078Z,2.92
2022-12-23T16:06:17.424Z,6.82
2022-12-23T16:08:45.305Z,3.63
2022-12-23T16:11:13.292Z,5.13
2022-12-23T16:13:46.687Z,5.25
2022-12-23T16:16:37.151Z,4.50
2022-12-23T16:19:04.175Z,5.22
2022-12-23T16:21:34.497Z,4.95
2022-12-23T16:24:03.120Z,2.95
2022-12-23T16:26:29.537Z,2.80
2022-12-23T16:29:00.222Z,3.33
2022-12-23T16:31:26.781Z,3.55
2022-12-23T16:34:00.322Z,3.88
2022-12-23T16:36:26.828Z,3.38
2022-12-23T16:39:00.724Z,4.88
2022-12-23T16:41:27.497Z,4.65
2022-12-23T16:43:53.832Z,6.60
2022-12-23T16:46:22.311Z,7.90
2022-12-23T16:48:51.314Z,6.47
2022-12-23T16:51:20.076Z,7.15
2022-12-23T16:53:48.283Z,6.03
2022-12-23T16:56:16.373Z,6.53
2022-12-23T16:58:43.559Z,5.20
2022-12-23T17:01:32.209Z,5.55
2022-12-23T17:03:59.009Z,3.95
2022-12-23T17:06:26.060Z,2.15
2022-12-23T17:08:53.321Z,2.80
2022-12-23T17:11:25.323Z,1.70
2022-12-23T17:13:55.293Z,2.03
2022-12-23T17:16:28.205Z,2.63
2022-12-23T17:18:54.894Z,3.10
2022-12-23T17:21:30.140Z,3.20
2022-12-23T17:24:05.246Z,2.67
2022-12-23T17:26:31.665Z,2.50
2022-12-23T17:28:58.233Z,2.35
2022-12-23T17:31:27.279Z,1.75
2022-12-23T17:33:54.561Z,1.00
2022-12-23T17:36:21.575Z,1.30
2022-12-23T17:38:48.182Z,0.82
2022-12-23T17:41:32.053Z,1.52
2022-12-23T17:43:59.140Z,1.55
2022-12-23T17:46:26.511Z,1.88
2022-12-23T17:48:53.569Z,1.00
2022-12-23T17:51:22.061Z,0.93
2022-12-23T17:53:56.915Z,1.55
2022-12-23T17:58:51.187Z,0.90
2022-12-23T18:01:19.449Z,0.90
2022-12-23T18:03:45.990Z,0.90
2022-12-23T18:06:17.781Z,0.60
2022-12-23T18:08:44.906Z,0.50
2022-12-23T18:11:39.042Z,2.45
2022-12-23T18:14:05.437Z,1.13
2022-12-23T18:16:31.908Z,0.55
2022-12-23T18:18:58.247Z,0.38
2022-12-23T18:21:27.058Z,0.50
2022-12-23T18:23:55.129Z,0.57
2022-12-23T18:26:21.555Z,0.45
2022-12-23T18:28:47.958Z,0.80
2022-12-23T18:31:17.296Z,0.50
2022-12-23T18:33:44.323Z,0.45
2022-12-23T18:36:21.772Z,0.40
2022-12-23T18:38:48.252Z,0.50
2022-12-23T18:41:14.613Z,0.20
2022-12-23T18:43:40.948Z,0.63
2022-12-23T18:46:07.499Z,0.40
2022-12-23T18:48:33.826Z,0.52
2022-12-23T18:51:00.534Z,0.50
2022-12-23T18:53:27.117Z,0.88
2022-12-23T18:55:54.220Z,1.73
2022-12-23T18:58:21.494Z,1.17
2022-12-23T19:00:50.282Z,0.70
2022-12-23T19:03:21.610Z,2.35
2022-12-23T19:05:48.971Z,3.38
2022-12-23T19:08:21.871Z,3.00
2022-12-23T19:10:52.728Z,2.35
2022-12-23T19:13:19.253Z,1.58
2022-12-23T19:15:46.193Z,1.52
2022-12-23T19:18:21.617Z,1.38
2022-12-23T19:20:48.836Z,1.35
2022-12-23T19:23:16.088Z,1.80
2022-12-23T19:25:50.743Z,1.75
2022-12-23T19:28:20.701Z,1.00
2022-12-23T19:30:47.122Z,4.65
2022-12-23T19:33:13.445Z,3.25
2022-12-23T19:35:44.161Z,1.50
2022-12-23T19:38:11.389Z,2.35
2022-12-23T19:40:38.126Z,2.75
2022-12-23T19:43:04.834Z,6.28
2022-12-23T19:45:31.268Z,3.08
2022-12-23T19:47:57.685Z,0.95
2022-12-23T19:50:24.097Z,2.03
2022-12-23T19:52:50.452Z,0.93
2022-12-23T19:55:16.904Z,0.68
2022-12-23T19:57:43.795Z,0.90
2022-12-23T20:00:10.614Z,0.77
2022-12-23T20:02:36.991Z,0.57
2022-12-23T20:05:04.067Z,0.30
2022-12-23T20:07:30.397Z,0.50
2022-12-23T20:09:56.778Z,0.32
2022-12-23T20:12:23.272Z,0.98
2022-12-23T20:14:49.571Z,0.40
2022-12-23T20:17:16.005Z,0.40
2022-12-23T20:19:46.027Z,0.20
2022-12-23T20:22:12.880Z,0.30
2022-12-23T20:24:39.278Z,0.32
2022-12-23T20:27:11.028Z,0.60
2022-12-23T20:29:38.459Z,0.15
2022-12-23T20:32:05.156Z,0.40
2022-12-23T20:34:36.665Z,0.47
2022-12-23T20:37:05.844Z,0.50
2022-12-23T20:39:32.200Z,0.50
2022-12-23T20:41:58.509Z,0.20
2022-12-23T20:44:34.643Z,0.30
2022-12-23T20:47:02.767Z,0.40
2022-12-23T20:49:29.273Z,0.32
2022-12-23T20:51:55.669Z,0.35
2022-12-23T20:54:26.336Z,0.40
2022-12-23T20:56:56.548Z,0.43
2022-12-23T20:59:22.927Z,0.50
2022-12-23T21:01:49.281Z,0.50
2022-12-23T21:04:16.571Z,0.50
2022-12-23T21:06:44.165Z,0.30
2022-12-23T21:09:13.170Z,0.65
2022-12-23T21:11:42.679Z,0.75
2022-12-23T21:14:10.221Z,0.63
2022-12-23T21:16:37.721Z,0.85
2022-12-23T21:19:08.915Z,2.15
2022-12-23T21:21:35.985Z,1.27
2022-12-23T21:24:03.500Z,0.43
2022-12-23T21:26:31.062Z,1.50
2022-12-23T21:28:59.276Z,0.95
2022-12-23T21:31:27.076Z,0.85
2022-12-23T21:33:53.916Z,0.75
2022-12-23T21:36:23.253Z,0.95
2022-12-23T21:38:50.351Z,0.70
2022-12-23T21:41:22.523Z,0.82
2022-12-23T21:43:50.137Z,1.00
2022-12-23T21:46:19.643Z,0.90
2022-12-23T21:48:46.468Z,1.15
2022-12-23T21:51:19.585Z,1.02
2022-12-23T21:53:48.499Z,1.33
2022-12-23T21:56:17.975Z,1.30
2022-12-23T21:58:45.274Z,0.95
2022-12-23T22:01:14.610Z,0.70
2022-12-23T22:03:43.105Z,0.50
2022-12-23T22:06:15.382Z,0.68
2022-12-23T22:08:42.930Z,0.98
2022-12-23T22:11:12.642Z,0.73
2022-12-23T22:13:39.752Z,0.90
2022-12-23T22:16:10.347Z,0.68
2022-12-23T22:18:37.891Z,1.33
2022-12-23T22:21:09.008Z,0.95
2022-12-23T22:23:36.769Z,1.55
2022-12-23T22:26:04.050Z,1.23
2022-12-23T22:28:32.037Z,0.73
2022-12-23T22:31:03.884Z,1.10
2022-12-23T22:33:31.871Z,0.90
2022-12-23T22:35:58.476Z,1.08
2022-12-23T22:38:25.213Z,1.17
2022-12-23T22:40:52.916Z,3.33
2022-12-23T22:43:20.053Z,1.85
2022-12-23T22:45:46.554Z,1.58
2022-12-23T22:48:13.510Z,0.77
2022-12-23T22:50:40.173Z,1.08
2022-12-23T22:53:06.603Z,0.93
2022-12-23T22:55:32.950Z,0.77
2022-12-23T22:57:59.364Z,1.40
2022-12-23T23:00:25.725Z,0.95
2022-12-23T23:02:52.062Z,1.20
2022-12-23T23:05:18.652Z,0.75
2022-12-23T23:07:44.996Z,1.30
2022-12-23T23:10:12.045Z,0.82
2022-12-23T23:12:38.748Z,0.98
2022-12-23T23:15:05.736Z,0.88
2022-12-23T23:17:32.337Z,1.00
2022-12-23T23:19:58.819Z,0.90
2022-12-23T23:22:25.264Z,2.70
2022-12-23T23:24:52.268Z,2.42
2022-12-23T23:27:19.213Z,3.33
2022-12-23T23:29:45.601Z,0.98
2022-12-23T23:32:12.261Z,1.15
2022-12-23T23:34:38.751Z,3.63
2022-12-23T23:37:05.096Z,5.50
2022-12-23T23:39:31.759Z,1.15
2022-12-23T23:41:58.603Z,1.25
2022-12-23T23:44:25.213Z,1.20
2022-12-23T23:46:51.528Z,1.17
2022-12-23T23:49:18.079Z,0.73
2022-12-23T23:51:44.468Z,0.65
2022-12-23T23:54:10.893Z,0.75
2022-12-23T23:56:39.056Z,0.50
2022-12-23T23:59:06.336Z,0.73
